Time;durP1;ratioP1;P1;durP2;ratioP2;P2;SDS_P1;SDS_P2;PMS_P1;PMS_P2;Temp;Humidity;BMP_temperature;BMP_pressure;BME280_temperature;BME280_humidity;BME280_pressure;Samples;Min_cycle;Max_cycle;Signal;HPM_P1;HPM_P2
2021/04/17 00:01:07;;;;;;;9.15;5.18;;;4.10;99.90;;;;;;5018013;28;20022;-77
2021/04/17 00:03:32;;;;;;;11.82;4.88;;;3.80;99.90;;;;;;5017936;28;20021;-78
2021/04/17 00:05:58;;;;;;;8.82;4.50;;;3.70;99.90;;;;;;5035625;28;20079;-76
2021/04/17 00:08:24;;;;;;;7.88;4.80;;;3.80;99.90;;;;;;5035823;28;20036;-78
2021/04/17 00:10:49;;;;;;;7.25;4.25;;;3.90;99.90;;;;;;5017800;28;20033;-78
2021/04/17 00:13:15;;;;;;;8.68;4.43;;;3.90;99.90;;;;;;5017748;28;20074;-78
2021/04/17 00:15:41;;;;;;;7.65;4.65;;;4.10;99.90;;;;;;5035736;28;20017;-77
2021/04/17 00:18:07;;;;;;;9.13;4.88;;;3.90;99.90;;;;;;5017661;28;20025;-78
2021/04/17 00:20:33;;;;;;;6.05;4.97;;;3.70;99.90;;;;;;5035410;28;20029;-77
2021/04/17 00:22:58;;;;;;;8.77;5.05;;;3.60;99.90;;;;;;5035346;28;20499;-77
2021/04/17 00:25:24;;;;;;;6.75;4.13;;;3.60;99.90;;;;;;5035304;28;20179;-77
2021/04/17 00:27:50;;;;;;;6.60;4.68;;;3.70;99.90;;;;;;5035248;28;20022;-77
2021/04/17 00:30:16;;;;;;;8.63;4.50;;;3.70;99.90;;;;;;5035209;28;20053;-78
2021/04/17 00:32:41;;;;;;;6.85;4.75;;;3.60;99.90;;;;;;5035092;28;20477;-78
2021/04/17 00:35:08;;;;;;;7.35;4.05;;;3.80;99.90;;;;;;5017354;28;20155;-77
2021/04/17 00:37:33;;;;;;;8.25;4.95;;;4.00;99.90;;;;;;5017270;28;20535;-77
2021/04/17 00:39:59;;;;;;;5.72;3.65;;;3.80;99.90;;;;;;5034968;28;20057;-77
2021/04/17 00:42:25;;;;;;;7.38;4.35;;;3.70;99.90;;;;;;5034906;28;20120;-77
2021/04/17 00:44:50;;;;;;;6.60;4.38;;;3.50;99.90;;;;;;5034083;28;20072;-77
2021/04/17 00:47:16;;;;;;;6.35;4.47;;;3.60;99.90;;;;;;5034875;28;20021;-77
2021/04/17 00:49:42;;;;;;;5.45;4.22;;;3.70;99.90;;;;;;5017073;28;20021;-77
2021/04/17 00:52:08;;;;;;;9.98;4.75;;;3.60;99.90;;;;;;5034765;28;20021;-76
2021/04/17 00:54:34;;;;;;;8.73;5.47;;;3.40;99.90;;;;;;5034606;28;20033;-77
2021/04/17 00:57:00;;;;;;;7.20;4.65;;;3.20;99.90;;;;;;5034646;28;20465;-77
2021/04/17 00:59:25;;;;;;;6.95;4.45;;;3.20;99.90;;;;;;5016904;28;20492;-77
2021/04/17 01:01:51;;;;;;;7.22;5.07;;;3.50;99.90;;;;;;5016889;28;20025;-77
2021/04/17 01:04:24;;;;;;;6.82;5.32;;;3.70;99.90;;;;;;5016850;28;20029;-77
2021/04/17 01:07:03;;;;;;;7.88;4.32;;;3.50;99.90;;;;;;5016765;28;20021;-77
2021/04/17 01:09:40;;;;;;;7.72;5.28;;;3.30;99.90;;;;;;5034503;28;20032;-77
2021/04/17 01:12:10;;;;;;;8.32;4.80;;;3.50;99.90;;;;;;5016658;28;20032;-78
2021/04/17 01:14:37;;;;;;;5.60;4.38;;;3.30;99.90;;;;;;5016505;28;20021;-78
2021/04/17 01:17:05;;;;;;;7.90;5.22;;;3.40;99.90;;;;;;5016601;28;20501;-77
2021/04/17 01:19:39;;;;;;;6.78;4.75;;;3.30;99.90;;;;;;5034277;28;20380;-77
2021/04/17 01:22:10;;;;;;;6.38;4.95;;;3.30;99.90;;;;;;5034509;28;20029;-77
2021/04/17 01:24:38;;;;;;;8.43;4.65;;;3.20;99.90;;;;;;5016484;28;20033;-77
2021/04/17 01:27:06;;;;;;;6.20;4.28;;;3.20;99.90;;;;;;5016670;28;20040;-77
2021/04/17 01:29:35;;;;;;;6.00;4.13;;;3.30;99.90;;;;;;5016375;28;20026;-78
2021/04/17 01:32:03;;;;;;;8.30;5.70;;;3.50;99.90;;;;;;5016290;28;20029;-78
2021/04/17 01:34:29;;;;;;;7.20;5.18;;;3.40;99.90;;;;;;5033937;28;20026;-77
2021/04/17 01:36:58;;;;;;;9.10;5.22;;;3.30;99.90;;;;;;5033942;28;20026;-77
2021/04/17 01:39:26;;;;;;;6.43;5.15;;;3.30;99.90;;;;;;5033912;28;20021;-77
2021/04/17 01:42:05;;;;;;;7.25;5.90;;;3.40;99.90;;;;;;5015890;28;20030;-78
2021/04/17 01:44:37;;;;;;;10.35;4.88;;;3.50;99.90;;;;;;5016077;28;20040;-77
2021/04/17 01:47:09;;;;;;;5.78;4.10;;;3.50;99.90;;;;;;5034072;28;20540;-77
2021/04/17 01:49:43;;;;;;;7.72;5.78;;;3.60;99.90;;;;;;5016023;28;20082;-77
2021/04/17 01:52:12;;;;;;;8.13;4.95;;;3.70;99.90;;;;;;5015973;28;20053;-77
2021/04/17 01:54:44;;;;;;;7.72;5.75;;;3.70;99.90;;;;;;5015920;28;20029;-78
2021/04/17 01:57:14;;;;;;;6.47;5.30;;;3.60;99.90;;;;;;5033320;28;20028;-77
2021/04/17 01:59:40;;;;;;;7.78;4.95;;;3.40;99.90;;;;;;5015931;28;20025;-77
2021/04/17 02:02:07;;;;;;;8.18;6.15;;;3.20;99.90;;;;;;5033495;28;20397;-78
2021/04/17 02:04:34;;;;;;;6.53;4.93;;;3.10;99.90;;;;;;5033516;28;20049;-77
2021/04/17 02:07:00;;;;;;;6.78;5.30;;;3.20;99.90;;;;;;5015789;28;20025;-77
2021/04/17 02:09:25;;;;;;;9.27;6.60;;;3.30;99.90;;;;;;5015738;28;20021;-78
2021/04/17 02:11:51;;;;;;;7.32;5.28;;;3.40;99.90;;;;;;5015712;28;20029;-77
2021/04/17 02:14:17;;;;;;;7.90;5.40;;;3.50;99.90;;;;;;5033317;28;20033;-77
2021/04/17 02:17:09;;;;;;;9.10;6.47;;;3.40;99.90;;;;;;5015634;28;20017;-77
2021/04/17 02:19:56;;;;;;;6.57;4.90;;;3.30;99.90;;;;;;5033382;28;20048;-78
2021/04/17 02:22:23;;;;;;;7.88;5.80;;;3.60;99.90;;;;;;5015598;28;20021;-77
2021/04/17 02:24:50;;;;;;;13.57;6.40;;;3.50;99.90;;;;;;5015552;28;20032;-77
2021/04/17 02:27:16;;;;;;;9.20;5.45;;;3.20;99.90;;;;;;5033519;28;20029;-77
2021/04/17 02:29:42;;;;;;;9.32;6.32;;;3.00;99.90;;;;;;5033256;28;20037;-78
2021/04/17 02:32:15;;;;;;;8.65;6.72;;;3.20;99.90;;;;;;5015733;28;20428;-77
2021/04/17 02:34:42;;;;;;;8.85;6.75;;;3.20;99.90;;;;;;5033157;28;20029;-77
2021/04/17 02:37:08;;;;;;;6.70;5.72;;;3.20;99.90;;;;;;5015461;28;20074;-78
2021/04/17 02:39:34;;;;;;;7.50;5.53;;;3.10;99.90;;;;;;5033111;28;20026;-77
2021/04/17 02:41:59;;;;;;;7.05;5.00;;;3.10;99.90;;;;;;5015245;28;20435;-77
2021/04/17 02:44:25;;;;;;;7.75;6.15;;;3.40;99.90;;;;;;5033399;28;20112;-77
2021/04/17 02:46:51;;;;;;;7.85;6.38;;;3.70;99.90;;;;;;5015397;28;20030;-77
2021/04/17 02:49:16;;;;;;;6.72;5.50;;;3.40;99.90;;;;;;5033033;28;20364;-77
2021/04/17 02:51:42;;;;;;;7.40;5.30;;;3.20;99.90;;;;;;5015340;28;20025;-77
2021/04/17 02:54:09;;;;;;;8.93;6.85;;;3.10;99.90;;;;;;5015211;28;20068;-77
2021/04/17 02:56:35;;;;;;;11.93;6.07;;;3.10;99.90;;;;;;5033244;28;20100;-78
2021/04/17 02:59:01;;;;;;;6.28;5.30;;;3.20;99.90;;;;;;5015253;28;20164;-78
2021/04/17 03:01:27;;;;;;;7.40;6.15;;;3.20;99.90;;;;;;5015265;28;20018;-77
2021/04/17 03:03:52;;;;;;;10.45;6.90;;;3.20;99.90;;;;;;5032908;28;20037;-78
2021/04/17 03:06:18;;;;;;;8.73;6.63;;;3.20;99.90;;;;;;5015187;28;20048;-77
2021/04/17 03:08:43;;;;;;;8.25;6.07;;;3.30;99.90;;;;;;5034477;28;20029;-78
2021/04/17 03:11:09;;;;;;;10.90;7.40;;;3.40;99.90;;;;;;5036673;28;20033;-77
2021/04/17 03:13:35;;;;;;;19.77;13.68;;;3.50;99.90;;;;;;5036582;28;20028;-77
2021/04/17 03:16:01;;;;;;;13.73;10.00;;;3.50;99.90;;;;;;5019111;28;20539;-77
2021/04/17 03:18:27;;;;;;;10.57;7.45;;;3.40;99.90;;;;;;5018787;28;20392;-76
2021/04/17 03:20:52;;;;;;;9.30;6.97;;;3.40;99.90;;;;;;5018767;28;20076;-77
2021/04/17 03:23:18;;;;;;;8.40;6.05;;;3.30;99.90;;;;;;5018700;28;20029;-77
2021/04/17 03:25:44;;;;;;;7.07;5.78;;;3.30;99.90;;;;;;5036926;28;20033;-78
2021/04/17 03:28:09;;;;;;;9.52;6.93;;;3.20;99.90;;;;;;5036357;28;20029;-77
2021/04/17 03:30:35;;;;;;;8.32;6.60;;;3.20;99.90;;;;;;5036347;28;20128;-77
2021/04/17 03:33:02;;;;;;;7.60;5.82;;;3.10;99.90;;;;;;5036233;28;20025;-77
2021/04/17 03:35:30;;;;;;;9.23;7.30;;;3.10;99.90;;;;;;5036511;28;20029;-78
2021/04/17 03:37:56;;;;;;;10.15;7.70;;;3.30;99.90;;;;;;5036158;28;20484;-78
2021/04/17 03:40:22;;;;;;;8.77;6.65;;;3.30;99.90;;;;;;5036159;28;20132;-77
2021/04/17 03:42:49;;;;;;;8.98;6.20;;;3.50;99.90;;;;;;5018219;28;20053;-77
2021/04/17 03:45:16;;;;;;;12.05;7.68;;;3.30;99.90;;;;;;5018288;28;20033;-77
2021/04/17 03:47:42;;;;;;;9.23;7.28;;;3.30;99.90;;;;;;5018240;28;20079;-77
2021/04/17 03:50:09;;;;;;;9.23;6.43;;;3.00;99.90;;;;;;5035987;28;20025;-77
2021/04/17 03:52:36;;;;;;;8.90;6.95;;;3.10;99.90;;;;;;5035820;28;20028;-77
2021/04/17 03:55:04;;;;;;;9.30;5.88;;;3.40;99.90;;;;;;5036175;28;20025;-77
2021/04/17 03:57:30;;;;;;;12.40;7.97;;;3.40;99.90;;;;;;5017966;28;20025;-78
2021/04/17 03:59:56;;;;;;;11.55;6.75;;;3.20;99.90;;;;;;5036335;28;20018;-77
2021/04/17 04:02:22;;;;;;;12.82;8.15;;;3.10;99.90;;;;;;5035744;28;20123;-78
2021/04/17 04:04:47;;;;;;;9.35;7.38;;;3.00;99.90;;;;;;5035693;28;20049;-77
2021/04/17 04:07:13;;;;;;;14.65;7.22;;;2.90;99.90;;;;;;5017929;28;20116;-78
2021/04/17 04:09:38;;;;;;;10.05;7.70;;;2.80;99.90;;;;;;5017864;28;20033;-78
2021/04/17 04:12:08;;;;;;;10.10;7.05;;;3.10;99.90;;;;;;5017855;28;20036;-77
2021/04/17 04:14:34;;;;;;;9.48;6.82;;;3.30;99.90;;;;;;5017678;28;20025;-78
2021/04/17 04:16:59;;;;;;;10.45;7.43;;;3.40;99.90;;;;;;5035732;28;20029;-78
2021/04/17 04:19:25;;;;;;;9.88;7.93;;;3.00;99.90;;;;;;5035192;28;20021;-78
2021/04/17 04:21:51;;;;;;;9.88;7.97;;;3.10;99.90;;;;;;5017659;28;20393;-77
2021/04/17 04:24:16;;;;;;;8.88;6.32;;;3.10;99.90;;;;;;5035588;28;20087;-77
2021/04/17 04:26:42;;;;;;;9.73;7.15;;;3.10;99.90;;;;;;5017895;28;20035;-77
2021/04/17 04:29:08;;;;;;;12.48;7.28;;;2.90;99.90;;;;;;5035236;28;20034;-77
2021/04/17 04:31:34;;;;;;;7.90;6.32;;;3.10;99.90;;;;;;5017454;28;20466;-77
2021/04/17 04:34:00;;;;;;;16.27;7.70;;;3.20;99.90;;;;;;5035382;28;20469;-78
2021/04/17 04:36:26;;;;;;;14.13;7.80;;;3.20;99.90;;;;;;5035399;28;20032;-77
2021/04/17 04:38:51;;;;;;;11.85;8.13;;;3.20;99.90;;;;;;5035041;28;20022;-77
2021/04/17 04:41:17;;;;;;;10.02;7.90;;;3.00;99.90;;;;;;5035287;28;20032;-77
2021/04/17 04:43:43;;;;;;;9.52;6.90;;;2.90;99.90;;;;;;5034804;28;20050;-77
2021/04/17 04:46:08;;;;;;;9.25;6.90;;;2.90;99.90;;;;;;5017170;28;20033;-77
2021/04/17 04:48:34;;;;;;;9.60;7.40;;;3.10;99.90;;;;;;5035391;28;20041;-76
2021/04/17 04:51:00;;;;;;;10.23;7.53;;;3.00;99.90;;;;;;5017113;28;20489;-77
2021/04/17 04:53:25;;;;;;;11.98;7.40;;;3.30;99.90;;;;;;5034725;28;20079;-77
2021/04/17 04:55:51;;;;;;;10.23;8.35;;;3.40;99.90;;;;;;5034712;28;20451;-77
2021/04/17 04:58:17;;;;;;;10.18;8.90;;;3.40;99.90;;;;;;5034968;28;20021;-77
2021/04/17 05:00:42;;;;;;;12.05;8.73;;;3.20;99.90;;;;;;5034678;28;20385;-76
2021/04/17 05:03:08;;;;;;;14.10;8.85;;;3.40;99.90;;;;;;5016874;28;20385;-77
2021/04/17 05:05:34;;;;;;;12.55;9.48;;;3.30;99.90;;;;;;5017104;28;20037;-77
2021/04/17 05:08:00;;;;;;;10.50;7.97;;;3.20;99.90;;;;;;5016698;28;20061;-77
2021/04/17 05:10:26;;;;;;;10.13;7.15;;;3.00;99.90;;;;;;5034749;28;20060;-77
2021/04/17 05:12:52;;;;;;;10.35;7.10;;;3.10;99.90;;;;;;5016585;28;20503;-77
2021/04/17 05:15:18;;;;;;;10.52;7.90;;;3.30;99.90;;;;;;5034358;28;20075;-77
2021/04/17 05:17:43;;;;;;;11.50;8.75;;;3.30;99.90;;;;;;5034638;28;20476;-76
2021/04/17 05:20:10;;;;;;;12.10;9.55;;;3.30;99.90;;;;;;5016597;28;20025;-77
2021/04/17 05:22:35;;;;;;;10.27;7.70;;;3.20;99.90;;;;;;5016547;28;20064;-77
2021/04/17 05:25:02;;;;;;;8.98;7.20;;;3.30;99.90;;;;;;5016451;28;20052;-77
2021/04/17 05:27:28;;;;;;;14.07;9.77;;;3.60;99.90;;;;;;5016437;28;20109;-77
2021/04/17 05:29:53;;;;;;;13.45;8.80;;;3.70;99.90;;;;;;5034092;28;20531;-77
2021/04/17 05:32:19;;;;;;;12.73;9.45;;;3.70;99.90;;;;;;5033716;28;20377;-77
2021/04/17 05:34:45;;;;;;;10.85;8.02;;;3.90;99.90;;;;;;5033917;28;20105;-77
2021/04/17 05:37:10;;;;;;;16.00;9.73;;;3.80;99.90;;;;;;5016265;28;20018;-77
2021/04/17 05:39:36;;;;;;;14.15;9.27;;;3.90;99.90;;;;;;5016160;28;20026;-77
2021/04/17 05:42:02;;;;;;;20.83;9.75;;;3.90;99.90;;;;;;5033692;28;20103;-77
2021/04/17 05:44:28;;;;;;;10.98;9.13;;;3.70;99.90;;;;;;5034138;28;20029;-76
2021/04/17 05:46:53;;;;;;;10.88;8.93;;;3.70;99.90;;;;;;5033778;28;20025;-76
2021/04/17 05:49:19;;;;;;;12.68;9.15;;;3.60;99.90;;;;;;5033749;28;20032;-77
2021/04/17 05:51:45;;;;;;;14.82;8.85;;;3.40;99.90;;;;;;5015979;28;20040;-77
2021/04/17 05:54:11;;;;;;;12.13;9.85;;;3.60;99.90;;;;;;5015958;28;20048;-77
2021/04/17 05:56:38;;;;;;;15.05;11.23;;;3.60;99.90;;;;;;5015946;28;20029;-77
2021/04/17 05:59:04;;;;;;;11.18;8.93;;;3.50;99.90;;;;;;5034119;28;20461;-77
2021/04/17 06:01:30;;;;;;;14.13;9.65;;;3.60;99.90;;;;;;5015870;28;20473;-77
2021/04/17 06:03:56;;;;;;;18.02;10.32;;;3.70;99.90;;;;;;5015800;28;20026;-77
2021/04/17 06:06:22;;;;;;;16.45;11.57;;;3.80;99.90;;;;;;5015701;28;20029;-77
2021/04/17 06:08:47;;;;;;;12.82;8.80;;;3.60;99.90;;;;;;5033451;28;20070;-77
2021/04/17 06:11:14;;;;;;;13.25;10.52;;;3.70;99.90;;;;;;5033432;28;20029;-78
2021/04/17 06:13:40;;;;;;;14.10;10.25;;;3.80;99.90;;;;;;5033566;28;20029;-77
2021/04/17 06:16:06;;;;;;;12.85;8.70;;;3.70;99.90;;;;;;5033663;28;20020;-78
2021/04/17 06:18:33;;;;;;;11.25;9.07;;;3.70;99.90;;;;;;5033355;28;20507;-78
2021/04/17 06:20:58;;;;;;;16.25;11.10;;;3.90;99.90;;;;;;5033586;28;20022;-78
2021/04/17 06:23:24;;;;;;;16.38;10.55;;;3.80;99.90;;;;;;5015582;28;20484;-78
2021/04/17 06:25:50;;;;;;;14.13;10.52;;;3.90;99.90;;;;;;5033835;28;20053;-78
2021/04/17 06:28:17;;;;;;;10.93;8.23;;;3.90;99.90;;;;;;5033495;28;20025;-78
2021/04/17 06:30:43;;;;;;;18.92;11.98;;;4.00;99.90;;;;;;5015478;28;20032;-78
2021/04/17 06:33:11;;;;;;;18.52;12.35;;;4.00;99.90;;;;;;5015399;28;20484;-78
2021/04/17 06:35:38;;;;;;;17.58;11.35;;;4.00;99.90;;;;;;5033110;28;20032;-77
2021/04/17 06:38:05;;;;;;;15.65;10.00;;;4.00;99.90;;;;;;5015384;28;20030;-77
2021/04/17 06:40:30;;;;;;;18.05;12.07;;;4.10;99.90;;;;;;5015380;28;20033;-78
2021/04/17 06:43:01;;;;;;;14.25;11.43;;;4.10;99.90;;;;;;5017165;28;20045;-78
2021/04/17 06:45:27;;;;;;;16.42;11.38;;;4.10;99.90;;;;;;5037480;28;20036;-78
2021/04/17 06:47:56;;;;;;;14.85;10.75;;;4.10;99.90;;;;;;5019412;28;20626;-77
2021/04/17 06:50:22;;;;;;;14.73;11.73;;;4.40;99.90;;;;;;5037332;28;20444;-77
2021/04/17 06:52:49;;;;;;;12.68;9.48;;;4.40;99.90;;;;;;5036932;28;20026;-78
2021/04/17 06:55:15;;;;;;;20.48;13.20;;;4.60;99.90;;;;;;5019180;28;20017;-77
2021/04/17 06:57:41;;;;;;;14.90;10.93;;;4.80;99.90;;;;;;5019204;28;20021;-76
2021/04/17 07:00:09;;;;;;;15.25;11.60;;;4.90;99.90;;;;;;5037157;28;20108;-78
2021/04/17 07:02:35;;;;;;;20.33;14.55;;;5.00;99.90;;;;;;5037081;28;20032;-77
2021/04/17 07:05:01;;;;;;;13.68;10.00;;;5.10;99.90;;;;;;5018969;28;20119;-77
2021/04/17 07:07:33;;;;;;;15.27;10.10;;;5.30;99.90;;;;;;5037279;28;20029;-77
2021/04/17 07:09:58;;;;;;;14.32;10.52;;;5.60;99.90;;;;;;5018981;28;20026;-78
2021/04/17 07:12:24;;;;;;;17.83;13.65;;;5.60;99.90;;;;;;5036608;28;20041;-78
2021/04/17 07:14:52;;;;;;;15.77;12.07;;;5.60;99.90;;;;;;5036534;28;20030;-76
2021/04/17 07:17:19;;;;;;;19.80;12.90;;;5.70;99.90;;;;;;5036583;28;20125;-78
2021/04/17 07:19:46;;;;;;;17.92;12.27;;;5.80;99.90;;;;;;5036467;28;20031;-75
2021/04/17 07:22:28;;;;;;;18.40;13.30;;;5.80;99.90;;;;;;5018684;28;20117;-78
2021/04/17 07:25:04;;;;;;;17.30;12.85;;;6.00;99.90;;;;;;5018658;28;20040;-77
2021/04/17 07:27:51;;;;;;;20.50;12.80;;;6.20;99.90;;;;;;5018628;28;20025;-77
2021/04/17 07:30:16;;;;;;;18.92;12.43;;;6.20;99.90;;;;;;5018578;28;20117;-77
2021/04/17 07:32:46;;;;;;;22.23;14.35;;;6.30;99.90;;;;;;5018418;28;20061;-78
2021/04/17 07:35:18;;;;;;;16.88;10.95;;;6.00;99.90;;;;;;5018524;28;20044;-78
2021/04/17 07:37:46;;;;;;;19.88;12.85;;;6.10;99.90;;;;;;5036147;28;20021;-77
2021/04/17 07:40:23;;;;;;;19.70;14.27;;;6.20;99.90;;;;;;5036192;28;20018;-78
2021/04/17 07:42:55;;;;;;;20.42;14.20;;;6.30;99.90;;;;;;5036136;28;20140;-77
2021/04/17 07:45:28;;;;;;;17.88;11.25;;;6.30;99.90;;;;;;5018301;28;20028;-78
2021/04/17 07:47:58;;;;;;;16.33;11.57;;;6.50;99.90;;;;;;5018329;28;20380;-77
2021/04/17 07:50:31;;;;;;;16.70;12.10;;;6.60;99.90;;;;;;5036185;28;20018;-77
2021/04/17 07:52:57;;;;;;;15.45;11.48;;;6.80;99.90;;;;;;5036073;28;20034;-77
2021/04/17 07:55:23;;;;;;;19.75;12.90;;;6.70;99.90;;;;;;5035520;28;20018;-77
2021/04/17 07:57:56;;;;;;;21.08;12.25;;;6.80;99.90;;;;;;5018062;28;20525;-77
2021/04/17 08:00:23;;;;;;;16.03;11.63;;;6.70;99.90;;;;;;5018107;28;20021;-76
2021/04/17 08:02:52;;;;;;;18.85;10.98;;;6.70;99.90;;;;;;5018026;28;20340;-78
2021/04/17 08:05:19;;;;;;;15.35;10.65;;;6.80;99.90;;;;;;5036507;28;20100;-78
2021/04/17 08:07:47;;;;;;;20.20;10.98;;;6.80;99.90;;;;;;5035637;28;20022;-77
2021/04/17 08:10:14;;;;;;;18.73;12.63;;;6.80;99.90;;;;;;5017830;28;20068;-77
2021/04/17 08:12:42;;;;;;;19.48;11.60;;;6.90;99.90;;;;;;5017880;28;20104;-77
2021/04/17 08:15:16;;;;;;;16.55;11.18;;;7.00;99.90;;;;;;5017813;28;20021;-76
2021/04/17 08:17:43;;;;;;;20.00;11.27;;;7.20;99.90;;;;;;5035530;28;20358;-76
2021/04/17 08:20:15;;;;;;;14.75;10.65;;;7.00;99.90;;;;;;5035456;28;20420;-77
2021/04/17 08:22:44;;;;;;;15.20;10.00;;;7.20;99.90;;;;;;5035685;28;20022;-76
2021/04/17 08:25:11;;;;;;;16.55;10.88;;;7.30;99.90;;;;;;5035328;28;20499;-77
2021/04/17 08:27:37;;;;;;;16.80;10.90;;;7.70;99.90;;;;;;5017605;28;20614;-78
2021/04/17 08:30:09;;;;;;;16.98;12.10;;;8.00;99.90;;;;;;5035519;28;20392;-77
2021/04/17 08:32:46;;;;;;;17.20;11.88;;;8.10;99.90;;;;;;5017500;28;20025;-77
2021/04/17 08:35:13;;;;;;;15.27;10.13;;;8.20;99.90;;;;;;5017260;28;20025;-78
2021/04/17 08:37:51;;;;;;;13.15;9.10;;;8.40;99.90;;;;;;5034852;28;20033;-77
2021/04/17 08:40:35;;;;;;;16.27;9.77;;;8.50;99.90;;;;;;5017206;28;20021;-78
2021/04/17 08:43:02;;;;;;;14.63;10.50;;;8.60;99.90;;;;;;5016854;28;20041;-78
2021/04/17 08:45:28;;;;;;;15.07;10.05;;;8.60;99.90;;;;;;5017147;28;20021;-77
2021/04/17 08:47:57;;;;;;;15.77;9.35;;;8.60;99.90;;;;;;5034762;28;20021;-78
2021/04/17 08:50:26;;;;;;;25.85;15.25;;;8.50;99.90;;;;;;5017063;28;20021;-78
2021/04/17 08:53:03;;;;;;;114.72;61.80;;;8.40;99.90;;;;;;5016966;28;20028;-78
2021/04/17 08:55:35;;;;;;;18.73;11.68;;;8.30;99.90;;;;;;5017135;28;20033;-78
2021/04/17 08:58:15;;;;;;;12.63;8.65;;;8.40;99.90;;;;;;5016984;28;20024;-78
2021/04/17 09:01:02;;;;;;;14.85;9.18;;;8.70;99.90;;;;;;5016819;28;20021;-78
2021/04/17 09:03:47;;;;;;;12.43;8.10;;;9.00;99.90;;;;;;5017514;28;20042;-78
2021/04/17 09:06:25;;;;;;;12.95;8.30;;;8.90;99.90;;;;;;5015840;28;20036;-77
2021/04/17 09:09:16;;;;;;;13.50;8.70;;;8.60;99.90;;;;;;5016658;28;20032;-77
2021/04/17 09:11:47;;;;;;;16.67;7.70;;;8.70;99.90;;;;;;5016708;28;20033;-78
2021/04/17 09:14:29;;;;;;;11.13;8.13;;;8.80;99.90;;;;;;5013980;28;20029;-77
2021/04/17 09:16:55;;;;;;;14.88;7.68;;;8.70;99.90;;;;;;5016584;28;20030;-78
2021/04/17 09:19:45;;;;;;;10.35;7.63;;;8.70;99.90;;;;;;5016173;28;20025;-77
2021/04/17 09:22:26;;;;;;;14.60;7.65;;;8.80;99.90;;;;;;5016470;28;20036;-78
2021/04/17 09:24:52;;;;;;;12.85;7.22;;;9.00;99.90;;;;;;5016372;28;20030;-78
2021/04/17 09:27:29;;;;;;;10.98;6.30;;;9.30;99.90;;;;;;5016352;28;20026;-78
2021/04/17 09:30:08;;;;;;;9.73;5.72;;;9.60;99.90;;;;;;5016376;28;20025;-77
2021/04/17 09:32:44;;;;;;;10.98;6.30;;;9.70;99.90;;;;;;5016863;28;20045;-78
2021/04/17 09:35:16;;;;;;;10.75;6.55;;;9.70;99.90;;;;;;5016314;28;20481;-78
2021/04/17 09:37:47;;;;;;;8.45;6.38;;;9.50;99.90;;;;;;5016132;28;20044;-77
2021/04/17 09:40:14;;;;;;;9.57;5.63;;;9.40;99.90;;;;;;5016215;28;20413;-77
2021/04/17 09:42:41;;;;;;;8.80;5.82;;;9.40;99.90;;;;;;5033851;28;20160;-78
2021/04/17 09:45:12;;;;;;;7.90;5.25;;;9.60;99.90;;;;;;5016096;28;20029;-78
2021/04/17 09:47:58;;;;;;;8.02;5.30;;;9.60;99.90;;;;;;5016085;28;20029;-77
2021/04/17 09:50:25;;;;;;;10.38;5.40;;;9.80;99.90;;;;;;5033795;28;20385;-78
2021/04/17 09:52:52;;;;;;;8.70;5.18;;;10.00;99.90;;;;;;5033517;28;20052;-77
2021/04/17 09:55:18;;;;;;;11.18;5.57;;;10.30;99.90;;;;;;5015879;28;20374;-78
2021/04/17 09:57:46;;;;;;;11.85;5.18;;;10.10;99.90;;;;;;5015863;28;20029;-77
2021/04/17 10:00:13;;;;;;;10.57;5.22;;;10.00;99.90;;;;;;5033548;28;20070;-77
2021/04/17 10:02:45;;;;;;;12.52;5.97;;;9.90;99.60;;;;;;5015806;28;20029;-78
2021/04/17 10:05:12;;;;;;;6.20;4.57;;;9.70;99.90;;;;;;5013278;28;20111;-77
2021/04/17 10:07:44;;;;;;;8.00;4.95;;;9.70;99.90;;;;;;5033510;28;20021;-78
2021/04/17 10:10:11;;;;;;;8.73;5.32;;;9.90;99.90;;;;;;5015652;28;20037;-78
2021/04/17 10:12:51;;;;;;;10.13;5.07;;;10.00;99.20;;;;;;5015687;28;20053;-78
2021/04/17 10:15:20;;;;;;;6.78;4.57;;;10.00;99.60;;;;;;5033661;28;20357;-77
2021/04/17 10:17:47;;;;;;;7.53;4.55;;;10.50;98.90;;;;;;5032949;28;20029;-78
2021/04/17 10:20:14;;;;;;;5.70;3.67;;;11.00;98.50;;;;;;5015655;28;20026;-78
2021/04/17 10:22:40;;;;;;;7.40;3.97;;;11.20;98.10;;;;;;5033523;28;20418;-78
2021/04/17 10:25:08;;;;;;;8.18;3.88;;;;;;;;;;5033013;28;20036;-78
2021/04/17 10:27:36;;;;;;;13.65;4.72;;;10.80;99.90;;;;;;5015445;28;20025;-78
2021/04/17 10:30:16;;;;;;;8.05;4.68;;;11.10;99.00;;;;;;5033114;28;20060;-78
2021/04/17 10:32:42;;;;;;;8.98;4.32;;;11.00;97.80;;;;;;5015421;28;20394;-78
2021/04/17 10:35:12;;;;;;;8.00;4.18;;;10.90;97.30;;;;;;5015341;28;20021;-78
2021/04/17 10:37:47;;;;;;;6.28;4.00;;;10.60;97.10;;;;;;4999080;28;20052;-78
2021/04/17 10:40:16;;;;;;;5.40;3.97;;;10.70;97.10;;;;;;5033096;28;20093;-78
2021/04/17 10:42:54;;;;;;;6.60;3.92;;;10.60;96.90;;;;;;5015064;28;20037;-79
2021/04/17 10:45:30;;;;;;;8.55;4.03;;;10.40;97.20;;;;;;5032389;28;20072;-78
2021/04/17 10:48:12;;;;;;;9.07;4.10;;;10.30;96.60;;;;;;5015244;28;20548;-78
2021/04/17 10:50:39;;;;;;;8.90;3.80;;;10.30;96.30;;;;;;5033320;28;20083;-78
2021/04/17 10:53:06;;;;;;;7.10;3.40;;;10.30;96.40;;;;;;5015176;28;20056;-78
2021/04/17 10:55:47;;;;;;;7.30;3.42;;;10.30;95.40;;;;;;5033012;28;20025;-78
2021/04/17 10:58:21;;;;;;;6.78;3.42;;;10.60;96.30;;;;;;5015272;28;20116;-78
2021/04/17 11:00:59;;;;;;;8.18;3.70;;;10.80;95.60;;;;;;5015254;28;20022;-78
2021/04/17 11:03:29;;;;;;;5.40;3.58;;;11.00;95.20;;;;;;5032963;28;20034;-78
2021/04/17 11:06:10;;;;;;;8.10;3.20;;;10.90;94.70;;;;;;5015736;28;20033;-77
2021/04/17 11:08:35;;;;;;;5.03;3.20;;;10.90;95.00;;;;;;5015204;28;20033;-78
2021/04/17 11:11:13;;;;;;;7.38;3.35;;;11.00;94.00;;;;;;5032811;28;20030;-78
2021/04/17 11:13:43;;;;;;;4.88;3.20;;;10.90;93.80;;;;;;5032764;28;20033;-78
2021/04/17 11:16:12;;;;;;;6.60;3.80;;;10.90;92.70;;;;;;5015895;28;20480;-78
2021/04/17 11:18:43;;;;;;;5.97;3.10;;;11.10;92.50;;;;;;5015102;28;20489;-77
2021/04/17 11:21:12;;;;;;;5.40;3.53;;;10.90;92.50;;;;;;5015071;28;20079;-77
2021/04/17 11:23:51;;;;;;;8.32;3.58;;;11.00;93.20;;;;;;5014979;28;20025;-78
2021/04/17 11:26:38;;;;;;;6.22;3.85;;;11.40;93.10;;;;;;5015018;28;20025;-78
2021/04/17 11:29:04;;;;;;;5.68;3.45;;;11.80;91.80;;;;;;5033820;28;20457;-78
2021/04/17 11:31:34;;;;;;;4.88;3.17;;;12.40;90.10;;;;;;5018539;28;20029;-78
2021/04/17 11:34:02;;;;;;;10.82;3.60;;;12.30;90.30;;;;;;5018415;28;20026;-78
2021/04/17 11:36:32;;;;;;;4.80;2.97;;;11.80;90.40;;;;;;5018530;28;20512;-78
2021/04/17 11:38:58;;;;;;;7.03;3.25;;;11.60;91.80;;;;;;5018132;28;20078;-78
2021/04/17 11:41:25;;;;;;;6.05;3.47;;;11.30;91.30;;;;;;5036093;28;20034;-78
2021/04/17 11:43:52;;;;;;;5.30;3.08;;;11.40;92.00;;;;;;5018138;28;20041;-78
2021/04/17 11:46:18;;;;;;;6.38;3.30;;;11.20;91.50;;;;;;5018305;28;20029;-78
2021/04/17 11:48:47;;;;;;;8.77;3.65;;;10.90;90.20;;;;;;5035990;28;20034;-78
2021/04/17 11:51:13;;;;;;;6.63;3.35;;;11.00;91.20;;;;;;5018241;28;20025;-78
2021/04/17 11:53:39;;;;;;;8.68;4.10;;;11.30;92.10;;;;;;5017755;28;20059;-78
2021/04/17 11:56:05;;;;;;;6.30;3.40;;;12.00;90.10;;;;;;5035687;28;20033;-78
2021/04/17 11:58:31;;;;;;;5.95;3.33;;;12.80;87.60;;;;;;5018303;28;20496;-79
2021/04/17 12:00:57;;;;;;;6.97;3.85;;;12.60;90.20;;;;;;5035777;28;20022;-78
2021/04/17 12:03:25;;;;;;;5.55;3.45;;;13.70;99.90;;;;;;5017952;28;20508;-78
2021/04/17 12:05:52;;;;;;;10.18;3.78;;;13.50;85.60;;;;;;5017968;28;20426;-78
2021/04/17 12:08:20;;;;;;;9.50;3.30;;;13.90;85.90;;;;;;5035652;28;20030;-79
2021/04/17 12:10:47;;;;;;;5.85;3.28;;;14.40;83.30;;;;;;5017843;28;20079;-78
2021/04/17 12:13:12;;;;;;;7.20;3.00;;;14.10;83.90;;;;;;5017756;28;20437;-78
2021/04/17 12:15:39;;;;;;;4.68;3.00;;;13.30;83.00;;;;;;5017703;28;20112;-78
2021/04/17 12:18:05;;;;;;;6.13;3.00;;;13.90;82.60;;;;;;5035418;28;20026;-78
2021/04/17 12:20:31;;;;;;;6.10;3.42;;;14.20;82.30;;;;;;5035353;28;20029;-79
2021/04/17 12:22:57;;;;;;;5.15;2.80;;;15.30;77.80;;;;;;5017504;28;20025;-78
2021/04/17 12:25:23;;;;;;;8.32;3.10;;;15.40;75.60;;;;;;5017339;28;20025;-78
2021/04/17 12:27:50;;;;;;;9.27;3.17;;;15.00;75.40;;;;;;5017591;28;20075;-79
2021/04/17 12:30:16;;;;;;;6.72;2.80;;;15.40;77.60;;;;;;5017383;28;20038;-78
2021/04/17 12:32:42;;;;;;;7.35;3.08;;;14.70;75.10;;;;;;5017403;28;20121;-78
2021/04/17 12:35:11;;;;;;;5.68;2.90;;;13.80;76.60;;;;;;5016980;28;20164;-78
2021/04/17 12:37:38;;;;;;;5.85;2.70;;;13.90;79.20;;;;;;5017283;28;20017;-78
2021/04/17 12:40:05;;;;;;;7.63;3.42;;;14.10;77.90;;;;;;5017229;28;20093;-78
2021/04/17 12:42:30;;;;;;;7.45;2.85;;;15.20;74.30;;;;;;5013584;28;20378;-79
2021/04/17 12:44:56;;;;;;;5.22;3.22;;;15.40;73.40;;;;;;5015062;28;20025;-78
2021/04/17 12:47:23;;;;;;;4.65;2.60;;;16.10;67.90;;;;;;5013786;28;20022;-78
2021/04/17 12:49:49;;;;;;;6.05;2.50;;;16.70;66.80;;;;;;5013797;28;20072;-79
2021/04/17 12:52:15;;;;;;;6.57;2.30;;;17.30;66.10;;;;;;5015033;28;20026;-78
2021/04/17 12:54:41;;;;;;;6.15;2.60;;;17.60;66.00;;;;;;5013673;28;20124;-78